Etusivu
METAR-TAF:

METAR-TAF

Lentoasemat :

Quentin Aanenson Field

Luverne, Minnesota, Yhdysvallat

Leveyspiiri: 43-37-16N, Pituuspiiri: 096-12-58W, korkeus merenpinnasta: 436 m

Tämänhetkinen sää

Tämä raportti tehtiin 19 minuuttia sitten, kello 09.35 UTC
Tuuli 7 kn lännestä/luoteesta
Lämpötila -8°C
Kosteus 85%
Ilmanpaine 1020 hPa
Näkyvyys: 11.3 km
Pilvistä 200 ft:n korkeudessa

METAR: KLYV 280935Z AUTO 30007KT 7SM OVC002 M08/M10 A3013 RMK AO2

Aika: 03:54 (09:54 UTC)


TAF: puuttuu

Säähavainnot ja -ennusteet yli 4000 lentoasemalta (METAR- ja TAF-raportit).

Käytössä olevat sääasemat on merkitty karttaan keltaisilla ja punaisilla pisteillä.

Aseta hiiri pisteen päälle nähdäksesi sääaseman nimen.

Klikkaa sitten nähdäksesi säähavainnot ja -ennusteet.

Kartan vaihtaminen: klikkaa mustalla rastilla varustettuja vihreitä pisteitä, niin voit zoomata sisään; viivalla varustettua vihreää pistettä, niin voit zoomata ulos tai vihreitä nuolia, niin pääset viereisille kartoille.


METAR-TAF: